createdAt,value
2023-04-22T00:01:02.334Z,101039.84
2023-04-22T00:03:30.163Z,101033.94
2023-04-22T00:05:57.205Z,101037.50
2023-04-22T00:08:25.486Z,101030.59
2023-04-22T00:10:52.106Z,101015.84
2023-04-22T00:13:18.736Z,101022.94
2023-04-22T00:15:45.598Z,101021.41
2023-04-22T00:18:14.028Z,101012.63
2023-04-22T00:20:44.216Z,101010.19
2023-04-22T00:23:14.617Z,101013.81
2023-04-22T00:25:41.311Z,101013.81
2023-04-22T00:28:08.347Z,101013.09
2023-04-22T00:30:35.921Z,101017.63
2023-04-22T00:33:02.631Z,101014.94
2023-04-22T00:35:29.344Z,101022.13
2023-04-22T00:37:57.297Z,101016.94
2023-04-22T00:40:23.971Z,101013.53
2023-04-22T00:42:51.269Z,101018.00
2023-04-22T00:45:20.898Z,101008.47
2023-04-22T00:47:48.977Z,101014.66
2023-04-22T00:50:16.426Z,101012.97
2023-04-22T00:52:43.147Z,101013.94
2023-04-22T00:55:12.559Z,101028.97
2023-04-22T00:57:39.828Z,101022.88
2023-04-22T01:00:09.699Z,101030.84
2023-04-22T01:02:38.793Z,101023.81
2023-04-22T01:05:12.939Z,101021.28
2023-04-22T01:07:39.546Z,101016.94
2023-04-22T01:10:06.775Z,101024.91
2023-04-22T01:12:33.525Z,101021.47
2023-04-22T01:15:03.742Z,101022.44
2023-04-22T01:17:32.047Z,101028.63
2023-04-22T01:19:59.299Z,101022.59
2023-04-22T01:22:29.492Z,101020.00
2023-04-22T01:24:56.621Z,101027.94
2023-04-22T01:27:23.825Z,101024.56
2023-04-22T01:29:52.238Z,101030.75
2023-04-22T01:32:19.722Z,101032.50
2023-04-22T01:34:46.530Z,101028.16
2023-04-22T01:37:13.186Z,101030.81
2023-04-22T01:39:40.300Z,101018.56
2023-04-22T01:42:07.830Z,101022.97
2023-04-22T01:44:34.478Z,101024.78
2023-04-22T01:47:01.092Z,101031.09
2023-04-22T01:49:27.809Z,101023.22
2023-04-22T01:51:54.738Z,101027.59
2023-04-22T01:54:21.387Z,101026.72
2023-04-22T01:56:53.396Z,101015.34
2023-04-22T01:59:21.490Z,101009.19
2023-04-22T02:01:48.368Z,101015.44
2023-04-22T02:04:15.027Z,101020.75
2023-04-22T02:06:41.744Z,101023.41
2023-04-22T02:09:08.370Z,101016.47
2023-04-22T02:11:35.447Z,101018.25
2023-04-22T02:14:02.019Z,101024.50
2023-04-22T02:16:28.809Z,101021.06
2023-04-22T02:18:55.545Z,101012.28
2023-04-22T02:21:22.253Z,101018.47
2023-04-22T02:23:49.065Z,101018.59
2023-04-22T02:26:15.628Z,101018.63
2023-04-22T02:28:42.769Z,101014.25
2023-04-22T02:31:09.582Z,101015.97
2023-04-22T02:33:36.444Z,101004.56
2023-04-22T02:36:03.200Z,101007.25
2023-04-22T02:38:29.851Z,101001.97
2023-04-22T02:40:56.413Z,101006.38
2023-04-22T02:43:23.138Z,100991.50
2023-04-22T02:45:49.752Z,101002.91
2023-04-22T02:48:16.415Z,101007.25
2023-04-22T02:50:43.090Z,101006.38
2023-04-22T02:53:09.758Z,100988.84
2023-04-22T02:55:36.347Z,100996.75
2023-04-22T02:58:02.959Z,100999.41
2023-04-22T03:00:29.815Z,100995.91
2023-04-22T03:02:56.770Z,100991.50
2023-04-22T03:05:23.545Z,100990.66
2023-04-22T03:07:50.360Z,100995.03
2023-04-22T03:10:17.182Z,100989.72
2023-04-22T03:12:43.773Z,100981.81
2023-04-22T03:15:10.949Z,100975.59
2023-04-22T03:17:37.614Z,100982.53
2023-04-22T03:20:04.685Z,100985.22
2023-04-22T03:22:31.360Z,100969.31
2023-04-22T03:24:58.122Z,100981.59
2023-04-22T03:27:26.920Z,100979.00
2023-04-22T03:29:53.544Z,100979.91
2023-04-22T03:32:20.316Z,100980.78
2023-04-22T03:34:46.909Z,100966.72
2023-04-22T03:37:13.530Z,100968.44
2023-04-22T03:39:40.668Z,100970.22
2023-04-22T03:42:07.504Z,100961.38
2023-04-22T03:44:34.133Z,100962.25
2023-04-22T03:47:00.716Z,100966.63
2023-04-22T03:49:27.963Z,100963.09
2023-04-22T03:51:54.601Z,100950.81
2023-04-22T03:54:21.354Z,100955.13
2023-04-22T03:56:48.069Z,100952.50
2023-04-22T03:59:14.708Z,100943.66
2023-04-22T04:01:41.454Z,100943.66
2023-04-22T04:04:08.365Z,100942.72
2023-04-22T04:06:35.481Z,100948.91
2023-04-22T04:09:02.184Z,100944.47
2023-04-22T04:11:28.865Z,100934.84
2023-04-22T04:13:55.435Z,100939.16
2023-04-22T04:16:22.284Z,100938.28
2023-04-22T04:18:52.453Z,100929.47
2023-04-22T04:21:19.039Z,100921.53
2023-04-22T04:23:46.819Z,100929.47
2023-04-22T04:26:14.998Z,100925.91
2023-04-22T04:28:41.723Z,100922.41
2023-04-22T04:31:08.441Z,100916.19
2023-04-22T04:33:36.950Z,100915.34
2023-04-22T04:36:04.316Z,100925.03
2023-04-22T04:38:31.042Z,100917.09
2023-04-22T04:40:58.031Z,100916.13
2023-04-22T04:43:26.082Z,100930.28
2023-04-22T04:45:53.490Z,100935.56
2023-04-22T04:48:20.289Z,100933.78
2023-04-22T04:50:47.108Z,100923.22
2023-04-22T04:53:13.731Z,100907.31
2023-04-22T04:55:40.594Z,100915.16
2023-04-22T04:58:07.264Z,100907.19
2023-04-22T05:00:33.955Z,100901.00
2023-04-22T05:03:00.885Z,100902.75
2023-04-22T05:05:28.570Z,100904.41
2023-04-22T05:07:55.229Z,100906.22
2023-04-22T05:10:21.882Z,100906.06
2023-04-22T05:12:48.511Z,100903.47
2023-04-22T05:15:15.460Z,100912.22
2023-04-22T05:17:42.138Z,100912.19
2023-04-22T05:20:09.173Z,100915.66
2023-04-22T05:22:41.354Z,100920.88
2023-04-22T05:25:08.662Z,100917.31
2023-04-22T05:27:37.569Z,100919.00
2023-04-22T05:30:04.685Z,100924.19
2023-04-22T05:32:31.345Z,100918.88
2023-04-22T05:34:58.007Z,100928.44
2023-04-22T05:37:24.595Z,100915.19
2023-04-22T05:39:51.276Z,100919.56
2023-04-22T05:42:17.938Z,100930.88
2023-04-22T05:44:44.564Z,100922.00
2023-04-22T05:47:11.267Z,100929.88
2023-04-22T05:49:38.237Z,100936.75
2023-04-22T05:52:05.317Z,100927.03
2023-04-22T05:54:31.966Z,100928.63
2023-04-22T05:56:58.932Z,100916.19
2023-04-22T05:59:26.513Z,100920.59
2023-04-22T06:01:53.216Z,100917.78
2023-04-22T06:04:20.082Z,100913.31
2023-04-22T06:06:48.005Z,100922.03
2023-04-22T06:09:14.657Z,100925.44
2023-04-22T06:11:41.292Z,100927.03
2023-04-22T06:14:07.916Z,100924.28
2023-04-22T06:16:34.637Z,100918.81
2023-04-22T06:19:01.367Z,100909.00
2023-04-22T06:21:28.573Z,100923.88
2023-04-22T06:23:55.990Z,100915.72
2023-04-22T06:26:22.813Z,100908.56
2023-04-22T06:28:49.541Z,100908.28
2023-04-22T06:31:16.795Z,100907.19
2023-04-22T06:33:44.460Z,100898.09
2023-04-22T06:36:11.295Z,100894.38
2023-04-22T06:38:38.031Z,100895.94
2023-04-22T06:41:04.756Z,100896.53
2023-04-22T06:43:31.670Z,100884.69
2023-04-22T06:45:58.365Z,100872.03
2023-04-22T06:48:25.012Z,100875.22
2023-04-22T06:50:51.606Z,100871.34
2023-04-22T06:53:18.190Z,100879.94
2023-04-22T06:55:45.305Z,100866.44
2023-04-22T06:58:11.878Z,100868.06
2023-04-22T07:00:38.469Z,100864.16
2023-04-22T07:03:05.143Z,100855.00
2023-04-22T07:05:32.083Z,100860.88
2023-04-22T07:07:58.710Z,100849.16
2023-04-22T07:10:25.346Z,100844.47
2023-04-22T07:12:51.913Z,100845.88
2023-04-22T07:15:18.591Z,100848.34
2023-04-22T07:17:45.214Z,100854.22
2023-04-22T07:20:11.942Z,100860.06
2023-04-22T07:22:38.600Z,100851.75
2023-04-22T07:25:07.426Z,100857.53
2023-04-22T07:27:37.150Z,100849.19
2023-04-22T07:30:04.569Z,100854.06
2023-04-22T07:32:31.454Z,100854.72
2023-04-22T07:34:58.025Z,100853.69
2023-04-22T07:37:24.594Z,100849.72
2023-04-22T07:39:51.145Z,100846.56
2023-04-22T07:42:17.869Z,100830.06
2023-04-22T07:44:44.450Z,100847.19
2023-04-22T07:47:11.178Z,100847.59
2023-04-22T07:49:38.113Z,100854.59
2023-04-22T07:52:04.941Z,100848.78
2023-04-22T07:54:31.503Z,100846.91
2023-04-22T07:56:58.307Z,100847.91
2023-04-22T07:59:24.975Z,100846.41
2023-04-22T08:01:54.145Z,100852.34
2023-04-22T08:04:23.909Z,100858.75
2023-04-22T08:06:50.924Z,100855.91
2023-04-22T08:09:17.462Z,100860.38
2023-04-22T08:11:44.012Z,100860.34
2023-04-22T08:14:10.590Z,100842.25
2023-04-22T08:16:39.545Z,100849.72
2023-04-22T08:19:06.100Z,100839.59
2023-04-22T08:21:32.995Z,100820.66
2023-04-22T08:23:59.562Z,100809.69
2023-04-22T08:26:26.215Z,100808.97
2023-04-22T08:28:52.790Z,100812.25
2023-04-22T08:31:19.466Z,100806.28
2023-04-22T08:33:46.253Z,100800.44
2023-04-22T08:36:12.887Z,100780.19
2023-04-22T08:38:39.783Z,100781.25
2023-04-22T08:41:07.242Z,100781.69
2023-04-22T08:43:34.587Z,100785.81
2023-04-22T08:46:02.253Z,100781.66
2023-04-22T08:48:31.161Z,100785.00
2023-04-22T08:50:58.474Z,100780.69
2023-04-22T08:53:25.368Z,100783.81
2023-04-22T08:55:55.512Z,100783.00
2023-04-22T08:58:23.516Z,100777.09
2023-04-22T09:00:50.790Z,100772.16
2023-04-22T09:03:18.164Z,100777.19
2023-04-22T09:05:46.635Z,100775.25
2023-04-22T09:08:15.074Z,100775.03
2023-04-22T09:10:43.145Z,100770.72
2023-04-22T09:13:10.604Z,100767.72
2023-04-22T09:15:37.231Z,100763.97
2023-04-22T09:18:06.864Z,100753.50
2023-04-22T09:20:33.417Z,100759.63
2023-04-22T09:23:05.051Z,100745.88
2023-04-22T09:25:35.319Z,100747.25
2023-04-22T09:28:03.351Z,100746.97
2023-04-22T09:30:33.042Z,100739.09
2023-04-22T09:33:03.948Z,100738.50
2023-04-22T09:35:41.477Z,100737.47
2023-04-22T09:38:11.287Z,100731.00
2023-04-22T09:40:42.229Z,100726.25
2023-04-22T09:43:09.805Z,100726.53
2023-04-22T09:45:39.388Z,100711.88
2023-04-22T09:48:17.969Z,100703.66
2023-04-22T09:50:48.953Z,100700.88
2023-04-22T09:53:18.612Z,100697.56
2023-04-22T09:55:49.125Z,100710.38
2023-04-22T09:58:18.788Z,100699.91
2023-04-22T10:00:49.627Z,100695.94
2023-04-22T10:03:16.741Z,100690.59
2023-04-22T10:05:45.665Z,100691.66
2023-04-22T10:08:14.453Z,100693.28
2023-04-22T10:10:45.043Z,100692.63
2023-04-22T10:13:11.601Z,100689.72
2023-04-22T10:15:45.300Z,100691.38
2023-04-22T10:18:17.896Z,100686.56
2023-04-22T10:20:47.396Z,100683.66
2023-04-22T10:23:20.096Z,100686.56
2023-04-22T10:25:54.310Z,100683.91
2023-04-22T10:28:23.297Z,100688.22
2023-04-22T10:30:50.980Z,100690.28
2023-04-22T10:33:31.806Z,100691.63
2023-04-22T10:36:19.413Z,100696.81
2023-04-22T10:38:55.205Z,100705.44
2023-04-22T10:41:33.521Z,100698.19
2023-04-22T10:44:02.660Z,100705.50
2023-04-22T10:46:38.212Z,100698.31
2023-04-22T10:49:11.618Z,100710.75
2023-04-22T10:51:46.535Z,100707.25
2023-04-22T10:54:31.591Z,100718.16
2023-04-22T10:57:09.329Z,100717.19
2023-04-22T10:59:45.709Z,100720.03
2023-04-22T11:02:15.632Z,100715.22
2023-04-22T11:04:43.124Z,100709.69
2023-04-22T11:07:36.937Z,100727.72
2023-04-22T11:10:16.450Z,100721.06
2023-04-22T11:12:45.048Z,100717.88
2023-04-22T11:15:14.677Z,100723.13
2023-04-22T11:17:44.785Z,100726.09
2023-04-22T11:20:17.461Z,100717.19
2023-04-22T11:22:50.455Z,100721.59
2023-04-22T11:25:17.959Z,100719.91
2023-04-22T11:27:45.260Z,100709.78
2023-04-22T11:30:18.609Z,100697.03
2023-04-22T11:32:50.208Z,100710.19
2023-04-22T11:35:20.734Z,100717.88
2023-04-22T11:37:59.578Z,100713.34
2023-04-22T11:40:39.402Z,100718.13
2023-04-22T11:43:12.533Z,100731.50
2023-04-22T11:45:44.101Z,100718.75
2023-04-22T11:48:12.060Z,100722.47
2023-04-22T11:50:44.773Z,100718.13
2023-04-22T11:53:21.101Z,100728.03
2023-04-22T11:55:51.280Z,100746.84
2023-04-22T11:58:24.715Z,100753.00
2023-04-22T12:00:53.739Z,100732.59
2023-04-22T12:03:23.794Z,100742.72
2023-04-22T12:06:04.986Z,100757.59
2023-04-22T12:08:37.154Z,100749.16
2023-04-22T12:11:06.078Z,100751.56
2023-04-22T12:13:38.723Z,100745.03
2023-04-22T12:16:14.070Z,100752.22
2023-04-22T12:18:48.072Z,100740.78
2023-04-22T12:21:17.909Z,100732.72
2023-04-22T12:23:53.615Z,100746.00
2023-04-22T12:26:25.416Z,100747.03
2023-04-22T12:28:54.413Z,100750.78
2023-04-22T12:31:21.574Z,100750.88
2023-04-22T12:33:48.497Z,100745.69
2023-04-22T12:36:16.226Z,100751.66
2023-04-22T12:38:45.330Z,100767.19
2023-04-22T12:41:13.717Z,100754.31
2023-04-22T12:43:40.476Z,100755.50
2023-04-22T12:46:08.789Z,100759.44
2023-04-22T12:48:40.161Z,100747.34
2023-04-22T12:51:07.197Z,100759.13
2023-04-22T12:53:34.203Z,100761.63
2023-04-22T12:56:01.189Z,100754.19
2023-04-22T12:58:28.066Z,100754.47
2023-04-22T13:00:54.739Z,100756.38
2023-04-22T13:03:21.606Z,100762.09
2023-04-22T13:05:48.545Z,100751.91
2023-04-22T13:08:15.417Z,100751.38
2023-04-22T13:10:42.246Z,100753.81
2023-04-22T13:15:39.921Z,100746.72
2023-04-22T13:18:07.680Z,100742.38
2023-04-22T13:20:34.366Z,100741.75
2023-04-22T13:23:02.356Z,100737.72
2023-04-22T13:25:29.082Z,100751.91
2023-04-22T13:27:55.805Z,100757.28
2023-04-22T13:30:22.618Z,100754.75
2023-04-22T13:32:49.271Z,100753.88
2023-04-22T13:35:18.071Z,100762.13
2023-04-22T13:37:46.108Z,100771.06
2023-04-22T13:40:12.870Z,100771.72
2023-04-22T13:42:39.716Z,100774.16
2023-04-22T13:45:07.040Z,100769.56
2023-04-22T13:47:33.716Z,100780.66
2023-04-22T13:50:01.621Z,100764.34
2023-04-22T13:52:28.871Z,100774.66
2023-04-22T13:54:55.419Z,100781.34
2023-04-22T13:57:23.063Z,100764.69
2023-04-22T13:59:50.779Z,100765.69
2023-04-22T14:02:17.819Z,100774.84
2023-04-22T14:04:44.641Z,100784.88
2023-04-22T14:07:11.677Z,100771.88
2023-04-22T14:09:38.469Z,100774.69
2023-04-22T14:12:07.925Z,100764.06
2023-04-22T14:14:34.742Z,100765.78
2023-04-22T14:17:01.577Z,100767.88
2023-04-22T14:19:30.343Z,100763.31
2023-04-22T14:21:57.379Z,100764.75
2023-04-22T14:24:24.352Z,100769.34
2023-04-22T14:26:54.432Z,100772.03
2023-04-22T14:29:21.376Z,100769.50
2023-04-22T14:31:49.712Z,100766.94
2023-04-22T14:34:17.131Z,100768.81
2023-04-22T14:36:44.123Z,100765.59
2023-04-22T14:39:10.986Z,100763.91
2023-04-22T14:41:39.950Z,100759.81
2023-04-22T14:44:06.602Z,100753.41
2023-04-22T14:46:33.305Z,100756.34
2023-04-22T14:48:59.950Z,100757.72
2023-04-22T14:51:27.578Z,100764.66
2023-04-22T14:53:54.516Z,100762.75
2023-04-22T14:56:21.419Z,100757.19
2023-04-22T14:58:48.498Z,100757.63
2023-04-22T15:01:15.749Z,100763.94
2023-04-22T15:03:42.699Z,100758.72
2023-04-22T15:06:09.470Z,100764.97
2023-04-22T15:08:36.336Z,100767.63
2023-04-22T15:11:02.926Z,100763.41
2023-04-22T15:13:29.513Z,100759.06
2023-04-22T15:15:58.461Z,100764.38
2023-04-22T15:18:25.071Z,100770.81
2023-04-22T15:20:51.711Z,100763.91
2023-04-22T15:23:18.404Z,100764.88
2023-04-22T15:25:44.965Z,100776.34
2023-04-22T15:28:11.752Z,100770.47
2023-04-22T15:30:40.650Z,100763.00
2023-04-22T15:33:07.434Z,100777.19
2023-04-22T15:35:34.114Z,100766.16
2023-04-22T15:38:01.385Z,100777.66
2023-04-22T15:40:28.109Z,100777.91
2023-04-22T15:42:54.636Z,100780.66
2023-04-22T15:45:21.467Z,100782.72
2023-04-22T15:47:52.382Z,100786.34
2023-04-22T15:50:20.025Z,100788.28
2023-04-22T15:52:46.615Z,100789.66
2023-04-22T15:55:13.355Z,100792.31
2023-04-22T15:57:43.966Z,100782.97
2023-04-22T16:00:13.695Z,100776.88
2023-04-22T16:02:42.972Z,100778.03
2023-04-22T16:05:11.679Z,100790.56
2023-04-22T16:07:38.710Z,100797.16
2023-04-22T16:10:05.942Z,100781.47
2023-04-22T16:12:34.222Z,100799.72
2023-04-22T16:15:01.627Z,100789.56
2023-04-22T16:17:28.349Z,100798.75
2023-04-22T16:19:55.523Z,100809.81
2023-04-22T16:22:22.231Z,100813.88
2023-04-22T16:24:49.168Z,100813.03
2023-04-22T16:27:18.830Z,100816.78
2023-04-22T16:29:49.629Z,100821.81
2023-04-22T16:32:16.299Z,100821.25
2023-04-22T16:34:42.951Z,100826.78
2023-04-22T16:37:17.085Z,100833.72
2023-04-22T16:39:43.726Z,100837.81
2023-04-22T16:42:10.434Z,100835.63
2023-04-22T16:44:37.036Z,100843.03
2023-04-22T16:47:03.643Z,100849.59
2023-04-22T16:49:30.384Z,100855.31
2023-04-22T16:51:57.005Z,100859.31
2023-04-22T16:54:23.587Z,100852.34
2023-04-22T16:56:50.217Z,100848.97
2023-04-22T16:59:16.835Z,100838.34
2023-04-22T17:01:43.454Z,100839.41
2023-04-22T17:04:13.565Z,100837.66
2023-04-22T17:06:40.963Z,100834.13
2023-04-22T17:09:10.873Z,100843.22
2023-04-22T17:11:38.853Z,100838.06
2023-04-22T17:14:08.102Z,100829.28
2023-04-22T17:16:37.604Z,100835.38
2023-04-22T17:19:08.793Z,100840.72
2023-04-22T17:21:35.725Z,100833.75
2023-04-22T17:24:05.755Z,100829.38
2023-04-22T17:26:33.393Z,100824.97
2023-04-22T17:29:13.960Z,100830.31
2023-04-22T17:31:42.541Z,100835.66
2023-04-22T17:34:25.083Z,100837.41
2023-04-22T17:36:54.390Z,100844.69
2023-04-22T17:39:32.386Z,100843.66
2023-04-22T17:42:14.450Z,100841.72
2023-04-22T17:44:47.864Z,100845.41
2023-04-22T17:47:28.636Z,100842.16
2023-04-22T17:49:56.188Z,100844.97
2023-04-22T17:52:23.140Z,100847.81
2023-04-22T17:54:52.329Z,100854.38
2023-04-22T17:57:39.080Z,100848.50
2023-04-22T18:00:10.198Z,100859.22
2023-04-22T18:02:37.230Z,100860.22
2023-04-22T18:05:05.569Z,100862.22
2023-04-22T18:07:32.291Z,100858.72
2023-04-22T18:09:58.962Z,100865.09
2023-04-22T18:12:30.379Z,100867.81
2023-04-22T18:14:57.981Z,100867.00
2023-04-22T18:17:24.701Z,100875.81
2023-04-22T18:19:54.411Z,100887.34
2023-04-22T18:22:28.786Z,100883.00
2023-04-22T18:24:55.519Z,100879.50
2023-04-22T18:27:22.122Z,100893.66
2023-04-22T18:29:48.843Z,100898.25
2023-04-22T18:32:20.124Z,100895.84
2023-04-22T18:34:47.075Z,100896.06
2023-04-22T18:37:14.028Z,100903.19
2023-04-22T18:39:40.760Z,100907.81
2023-04-22T18:42:07.471Z,100913.41
2023-04-22T18:44:34.220Z,100921.44
2023-04-22T18:47:00.884Z,100912.09
2023-04-22T18:49:27.908Z,100913.16
2023-04-22T18:51:54.489Z,100916.78
2023-04-22T18:54:21.201Z,100923.19
2023-04-22T18:56:47.786Z,100942.13
2023-04-22T18:59:14.345Z,100937.03
2023-04-22T19:01:41.197Z,100938.09
2023-04-22T19:04:08.132Z,100952.41
2023-04-22T19:06:34.986Z,100955.25
2023-04-22T19:09:01.685Z,100952.84
2023-04-22T19:11:28.595Z,100955.56
2023-04-22T19:13:55.567Z,100961.06
2023-04-22T19:16:23.696Z,100969.19
2023-04-22T19:18:52.412Z,100963.19
2023-04-22T19:21:19.756Z,100967.66
2023-04-22T19:23:47.031Z,100971.38
2023-04-22T19:26:13.728Z,100972.34
2023-04-22T19:28:47.052Z,100959.03
2023-04-22T19:31:17.340Z,100970.69
2023-04-22T19:33:44.953Z,100979.53
2023-04-22T19:36:11.614Z,100975.19
2023-04-22T19:38:38.560Z,100980.56
2023-04-22T19:41:05.506Z,100978.91
2023-04-22T19:43:32.155Z,100984.38
2023-04-22T19:45:59.111Z,100978.25
2023-04-22T19:48:26.176Z,100975.72
2023-04-22T19:50:53.704Z,100969.69
2023-04-22T19:53:26.076Z,100968.16
2023-04-22T19:55:52.816Z,100974.47
2023-04-22T19:58:19.981Z,100972.03
2023-04-22T20:00:46.938Z,100973.06
2023-04-22T20:03:14.753Z,100984.66
2023-04-22T20:05:43.768Z,100974.31
2023-04-22T20:08:16.604Z,100977.09
2023-04-22T20:10:49.518Z,100977.28
2023-04-22T20:13:17.298Z,100980.06
2023-04-22T20:15:44.653Z,100981.00
2023-04-22T20:18:11.913Z,100982.16
2023-04-22T20:20:40.660Z,100985.81
2023-04-22T20:23:10.709Z,100987.81
2023-04-22T20:25:42.039Z,100978.22
2023-04-22T20:28:10.086Z,100998.56
2023-04-22T20:30:36.984Z,100978.34
2023-04-22T20:33:03.802Z,100981.13
2023-04-22T20:35:32.021Z,100979.41
2023-04-22T20:38:01.285Z,100981.25
2023-04-22T20:40:29.494Z,100975.19
2023-04-22T20:43:01.103Z,100967.44
2023-04-22T20:45:27.937Z,100960.44
2023-04-22T20:47:54.582Z,100964.94
2023-04-22T20:50:21.375Z,100951.78
2023-04-22T20:52:49.170Z,100965.00
2023-04-22T20:55:17.269Z,100965.19
2023-04-22T20:57:44.003Z,100967.00
2023-04-22T21:00:14.173Z,100967.06
2023-04-22T21:02:42.171Z,100959.97
2023-04-22T21:05:12.394Z,100960.09
2023-04-22T21:07:44.182Z,100963.75
2023-04-22T21:10:13.316Z,100977.81
2023-04-22T21:12:40.438Z,100974.38
2023-04-22T21:15:08.332Z,100968.22
2023-04-22T21:17:37.321Z,100963.97
2023-04-22T21:20:05.541Z,100959.59
2023-04-22T21:22:32.846Z,100956.03
2023-04-22T21:25:00.702Z,100954.31
2023-04-22T21:27:27.653Z,100959.63
2023-04-22T21:30:04.826Z,100958.78
2023-04-22T21:32:33.020Z,100965.84
2023-04-22T21:35:00.193Z,100958.69
2023-04-22T21:37:35.319Z,100963.13
2023-04-22T21:40:02.066Z,100953.44
2023-04-22T21:42:28.848Z,100964.88
2023-04-22T21:44:55.606Z,100953.41
2023-04-22T21:47:22.299Z,100955.22
2023-04-22T21:49:48.987Z,100951.72
2023-04-22T21:52:16.343Z,100965.84
2023-04-22T21:54:43.927Z,100973.84
2023-04-22T21:57:12.986Z,100970.38
2023-04-22T21:59:42.630Z,100977.53
2023-04-22T22:02:11.691Z,100976.66
2023-04-22T22:04:39.390Z,100982.88
2023-04-22T22:07:07.010Z,100972.31
2023-04-22T22:09:33.825Z,100971.47
2023-04-22T22:12:01.887Z,100975.91
2023-04-22T22:14:28.601Z,100981.16
2023-04-22T22:16:55.735Z,100982.94
2023-04-22T22:19:22.816Z,100973.25
2023-04-22T22:21:49.502Z,100968.06
2023-04-22T22:24:16.434Z,100973.44
2023-04-22T22:26:43.477Z,100972.50
2023-04-22T22:29:15.459Z,100983.09
2023-04-22T22:31:44.317Z,100980.34
2023-04-22T22:34:11.643Z,100978.72
2023-04-22T22:36:38.347Z,100977.84
2023-04-22T22:39:05.390Z,100976.88
2023-04-22T22:41:32.222Z,100985.81
2023-04-22T22:43:58.923Z,100990.19
2023-04-22T22:46:25.798Z,100984.94
2023-04-22T22:48:52.670Z,100992.06
2023-04-22T22:51:19.300Z,100990.34
2023-04-22T22:53:45.974Z,100998.38
2023-04-22T22:56:15.845Z,101003.66
2023-04-22T22:58:44.755Z,100999.28
2023-04-22T23:01:11.502Z,100994.00
2023-04-22T23:03:38.352Z,100998.41
2023-04-22T23:06:05.880Z,100997.50
2023-04-22T23:08:32.539Z,100993.13
2023-04-22T23:10:59.158Z,100994.00
2023-04-22T23:13:25.852Z,100990.47
2023-04-22T23:15:52.442Z,100990.50
2023-04-22T23:18:19.683Z,100994.06
2023-04-22T23:20:50.018Z,101001.13
2023-04-22T23:23:18.644Z,100994.06
2023-04-22T23:25:46.588Z,101001.97
2023-04-22T23:28:13.636Z,100991.38
2023-04-22T23:30:41.497Z,100986.09
2023-04-22T23:33:12.722Z,100987.81
2023-04-22T23:35:41.450Z,100991.38
2023-04-22T23:38:11.884Z,100977.41
2023-04-22T23:40:38.593Z,100980.00
2023-04-22T23:43:05.252Z,100978.22
2023-04-22T23:45:32.041Z,100972.03
2023-04-22T23:47:58.718Z,100961.53
2023-04-22T23:50:25.436Z,100959.75
2023-04-22T23:52:52.091Z,100955.34
2023-04-22T23:55:19.357Z,100952.72
2023-04-22T23:57:46.251Z,100949.22
